Time;durP1;ratioP1;P1;durP2;ratioP2;P2;SDS_P1;SDS_P2;PMS_P1;PMS_P2;Temp;Humidity;BMP_temperature;BMP_pressure;BME280_temperature;BME280_humidity;BME280_pressure;Samples;Min_cycle;Max_cycle;Signal;HPM_P1;HPM_P2
2021/06/07 00:00:42;;;;;;;18.17;11.50;;;15.80;99.90;;;;;;5064406;28;20081;-79
2021/06/07 00:03:07;;;;;;;20.38;11.85;;;15.80;99.90;;;;;;5082672;28;20092;-79
2021/06/07 00:05:33;;;;;;;22.85;13.02;;;15.70;99.90;;;;;;5082442;28;20028;-79
2021/06/07 00:07:59;;;;;;;22.38;12.52;;;15.70;99.90;;;;;;5075861;28;20079;-81
2021/06/07 00:10:25;;;;;;;20.10;12.15;;;15.80;99.90;;;;;;5089911;28;20020;-81
2021/06/07 00:12:51;;;;;;;19.38;12.30;;;15.80;99.90;;;;;;5081674;28;20040;-79
2021/06/07 00:15:20;;;;;;;19.88;12.13;;;15.80;99.90;;;;;;5063229;28;20025;-79
2021/06/07 00:17:46;;;;;;;23.20;12.98;;;15.80;99.90;;;;;;5059874;28;20055;-79
2021/06/07 00:20:21;;;;;;;20.77;12.60;;;15.80;99.90;;;;;;5082557;28;20088;-79
2021/06/07 00:22:47;;;;;;;22.63;13.25;;;15.70;99.90;;;;;;5080370;28;20017;-79
2021/06/07 00:25:13;;;;;;;21.40;13.23;;;15.70;99.90;;;;;;5083667;28;20138;-79
2021/06/07 00:27:38;;;;;;;21.10;12.57;;;15.70;99.90;;;;;;5085725;28;20033;-79
2021/06/07 00:30:06;;;;;;;22.35;13.65;;;15.70;99.90;;;;;;5086093;28;20116;-79
2021/06/07 00:32:32;;;;;;;25.90;14.30;;;15.70;99.90;;;;;;5067470;28;20024;-80
2021/06/07 00:34:57;;;;;;;21.25;12.27;;;15.70;99.90;;;;;;5065602;28;20051;-79
2021/06/07 00:37:23;;;;;;;22.75;13.63;;;15.70;99.90;;;;;;5065345;28;20036;-79
2021/06/07 00:39:48;;;;;;;23.95;13.60;;;15.80;99.90;;;;;;5077332;28;20463;-79
2021/06/07 00:42:14;;;;;;;25.88;13.73;;;15.70;99.90;;;;;;5071112;28;20020;-79
2021/06/07 00:44:40;;;;;;;22.80;13.07;;;15.70;99.90;;;;;;5082460;28;20076;-79
2021/06/07 00:47:07;;;;;;;25.13;14.20;;;15.70;99.90;;;;;;5084591;28;20021;-79
2021/06/07 00:49:33;;;;;;;22.95;14.05;;;15.70;99.90;;;;;;5086158;28;20040;-79
2021/06/07 00:51:59;;;;;;;25.88;13.88;;;15.70;99.90;;;;;;5083572;28;20051;-79
2021/06/07 00:54:24;;;;;;;25.42;13.07;;;15.60;99.90;;;;;;5085412;28;20043;-80
2021/06/07 00:56:50;;;;;;;26.83;13.45;;;15.70;99.90;;;;;;5081124;28;20044;-79
2021/06/07 00:59:16;;;;;;;23.10;13.18;;;15.60;99.90;;;;;;5081224;28;20032;-78
2021/06/07 01:01:42;;;;;;;22.83;12.82;;;15.60;99.90;;;;;;5081229;28;20028;-79
2021/06/07 01:04:08;;;;;;;24.63;14.00;;;15.60;99.90;;;;;;5063054;28;20118;-79
2021/06/07 01:06:34;;;;;;;25.58;13.95;;;15.60;99.90;;;;;;5083576;28;20039;-79
2021/06/07 01:09:00;;;;;;;28.35;13.45;;;15.60;99.90;;;;;;5083039;28;20059;-80
2021/06/07 01:11:26;;;;;;;28.60;14.27;;;15.60;99.90;;;;;;5084209;28;20029;-80
2021/06/07 01:13:52;;;;;;;24.10;13.13;;;15.50;99.90;;;;;;5083915;28;20032;-79
2021/06/07 01:16:19;;;;;;;22.98;12.90;;;15.60;99.90;;;;;;5082830;28;20043;-79
2021/06/07 01:18:46;;;;;;;30.00;14.65;;;15.50;99.90;;;;;;5081901;28;20033;-79
2021/06/07 01:21:14;;;;;;;23.02;14.15;;;15.50;99.90;;;;;;5082725;28;20088;-79
2021/06/07 01:23:42;;;;;;;23.38;13.68;;;15.50;99.90;;;;;;5082629;28;20113;-79
2021/06/07 01:26:09;;;;;;;24.13;13.20;;;15.50;99.90;;;;;;5041593;28;20060;-80
2021/06/07 01:28:37;;;;;;;23.55;13.50;;;15.50;99.90;;;;;;5046341;28;20052;-79
2021/06/07 01:31:03;;;;;;;24.02;13.55;;;15.50;99.90;;;;;;5045144;28;20039;-79
2021/06/07 01:33:30;;;;;;;26.05;13.68;;;15.40;99.90;;;;;;5062032;28;20087;-79
2021/06/07 01:35:59;;;;;;;25.90;14.30;;;15.40;99.90;;;;;;5070316;28;20032;-79
2021/06/07 01:38:25;;;;;;;23.88;13.73;;;15.40;99.90;;;;;;5081663;28;20107;-79
2021/06/07 01:40:54;;;;;;;22.92;13.13;;;15.40;99.90;;;;;;5063148;28;20056;-79
2021/06/07 01:43:20;;;;;;;26.95;14.57;;;15.40;99.90;;;;;;5081901;28;20086;-79
2021/06/07 01:45:47;;;;;;;24.52;14.15;;;15.40;99.90;;;;;;5044166;28;20051;-79
2021/06/07 01:48:14;;;;;;;26.85;13.52;;;15.50;99.90;;;;;;5061118;28;20465;-79
2021/06/07 01:50:40;;;;;;;27.83;13.48;;;15.40;99.90;;;;;;5043081;28;20154;-79
2021/06/07 01:53:07;;;;;;;29.30;14.00;;;15.40;99.90;;;;;;5061352;28;20033;-79
2021/06/07 01:55:35;;;;;;;26.67;13.55;;;15.40;99.90;;;;;;5082801;28;20032;-79
2021/06/07 01:58:03;;;;;;;26.40;14.07;;;15.40;99.90;;;;;;5084677;28;20033;-80
2021/06/07 02:00:50;;;;;;;24.42;12.50;;;15.40;99.90;;;;;;5063307;28;20052;-79
2021/06/07 02:03:17;;;;;;;25.35;13.65;;;15.40;99.90;;;;;;5080646;28;20024;-79
2021/06/07 02:05:46;;;;;;;28.65;14.18;;;15.40;99.90;;;;;;5081140;28;20090;-79
2021/06/07 02:08:14;;;;;;;22.63;12.77;;;15.40;99.90;;;;;;5079976;28;20189;-78
2021/06/07 02:10:46;;;;;;;28.40;14.60;;;15.40;99.90;;;;;;5062933;28;20039;-79
2021/06/07 02:13:13;;;;;;;27.90;14.65;;;15.40;99.90;;;;;;5057782;28;20063;-79
2021/06/07 02:15:39;;;;;;;26.25;13.75;;;15.30;99.90;;;;;;5059807;28;20051;-78
2021/06/07 02:18:10;;;;;;;23.77;13.77;;;15.30;99.90;;;;;;5043024;28;20024;-79
2021/06/07 02:20:38;;;;;;;29.25;14.50;;;15.30;99.90;;;;;;5044688;28;20057;-79
2021/06/07 02:23:03;;;;;;;26.52;13.25;;;15.30;99.90;;;;;;5075601;28;20143;-79
2021/06/07 02:25:29;;;;;;;25.33;12.88;;;15.30;99.90;;;;;;5063356;28;20048;-79
2021/06/07 02:27:55;;;;;;;27.95;14.13;;;15.30;99.90;;;;;;5063016;28;20024;-79
2021/06/07 02:30:23;;;;;;;26.00;14.27;;;15.40;99.90;;;;;;5078129;28;20484;-79
2021/06/07 02:32:50;;;;;;;26.08;14.63;;;15.30;99.90;;;;;;5081182;28;20032;-79
2021/06/07 02:35:18;;;;;;;27.38;13.80;;;15.30;99.90;;;;;;5079426;28;20033;-79
2021/06/07 02:37:45;;;;;;;27.73;14.32;;;15.30;99.90;;;;;;5078895;28;20033;-79
2021/06/07 02:40:13;;;;;;;28.13;14.68;;;15.30;99.90;;;;;;5080013;28;20407;-78
2021/06/07 02:42:40;;;;;;;28.05;14.20;;;15.30;99.90;;;;;;5066753;28;20078;-80
2021/06/07 02:45:09;;;;;;;29.52;14.52;;;15.20;99.90;;;;;;5062669;28;20044;-80
2021/06/07 02:47:34;;;;;;;26.63;14.27;;;15.30;99.90;;;;;;5060863;28;20032;-79
2021/06/07 02:50:00;;;;;;;29.13;14.68;;;15.30;99.90;;;;;;5062080;28;20100;-79
2021/06/07 02:52:27;;;;;;;31.33;14.93;;;15.30;99.90;;;;;;5061890;28;20028;-79
2021/06/07 02:54:52;;;;;;;27.30;14.43;;;15.30;99.90;;;;;;5080511;28;20028;-79
2021/06/07 02:57:18;;;;;;;30.27;14.40;;;15.20;99.90;;;;;;5058714;28;20418;-79
2021/06/07 02:59:44;;;;;;;26.23;14.32;;;15.20;99.90;;;;;;5059739;28;20025;-79
2021/06/07 03:02:10;;;;;;;28.23;14.38;;;15.20;99.90;;;;;;5060244;28;20546;-79
2021/06/07 03:04:36;;;;;;;29.70;14.40;;;15.20;99.90;;;;;;5059733;28;20021;-79
2021/06/07 03:07:02;;;;;;;29.25;15.00;;;15.10;99.90;;;;;;5061445;28;20071;-79
2021/06/07 03:09:28;;;;;;;31.05;14.30;;;15.20;99.90;;;;;;5079147;28;20024;-79
2021/06/07 03:11:53;;;;;;;30.02;14.43;;;15.20;99.90;;;;;;5077475;28;20552;-78
2021/06/07 03:14:19;;;;;;;31.00;15.13;;;15.20;99.90;;;;;;5044705;28;20055;-79
2021/06/07 03:16:44;;;;;;;30.13;15.90;;;15.20;99.90;;;;;;5059595;28;20029;-79
2021/06/07 03:19:10;;;;;;;31.30;15.43;;;15.20;99.90;;;;;;5057958;28;20064;-79
2021/06/07 03:21:35;;;;;;;30.27;15.85;;;15.10;99.90;;;;;;5057403;28;20013;-79
2021/06/07 03:24:01;;;;;;;29.00;15.02;;;15.10;99.90;;;;;;5072661;28;20060;-79
2021/06/07 03:26:27;;;;;;;32.95;16.02;;;15.10;99.90;;;;;;5078944;28;20349;-79
2021/06/07 03:28:52;;;;;;;30.23;15.43;;;15.10;99.90;;;;;;5080664;28;20024;-79
2021/06/07 03:31:18;;;;;;;30.60;14.65;;;15.10;99.90;;;;;;5097922;22;20053;-83
2021/06/07 03:33:44;;;;;;;34.10;15.80;;;15.10;99.90;;;;;;5081891;28;20358;-83
2021/06/07 03:36:10;;;;;;;33.95;16.65;;;15.10;99.90;;;;;;5099267;28;20043;-83
2021/06/07 03:38:36;;;;;;;32.63;16.13;;;15.10;99.90;;;;;;5081686;28;20028;-84
2021/06/07 03:41:02;;;;;;;32.17;15.65;;;15.10;99.90;;;;;;5078083;28;20032;-84
2021/06/07 03:43:31;;;;;;;30.08;15.57;;;15.10;99.90;;;;;;5080169;28;20061;-83
2021/06/07 03:45:58;;;;;;;34.63;16.55;;;15.10;99.90;;;;;;5079635;28;20028;-82
2021/06/07 03:48:24;;;;;;;34.08;16.70;;;15.20;99.90;;;;;;5066186;28;20032;-83
2021/06/07 03:50:50;;;;;;;35.22;16.75;;;15.10;99.90;;;;;;5079104;28;20154;-83
2021/06/07 03:53:16;;;;;;;34.45;16.50;;;15.10;99.90;;;;;;5059538;28;20047;-83
2021/06/07 03:55:41;;;;;;;36.30;15.30;;;15.00;99.90;;;;;;5060605;28;20477;-83
2021/06/07 03:58:07;;;;;;;34.97;14.95;;;15.10;99.90;;;;;;5060998;28;20033;-83
2021/06/07 04:00:35;;;;;;;33.35;15.77;;;15.10;99.90;;;;;;5087649;28;20035;-84
2021/06/07 04:03:02;;;;;;;37.85;16.75;;;15.00;99.90;;;;;;5104979;28;20028;-83
2021/06/07 04:05:28;;;;;;;34.20;16.70;;;15.10;99.90;;;;;;5088408;28;20032;-84
2021/06/07 04:07:55;;;;;;;32.30;16.40;;;15.10;99.90;;;;;;5094204;28;20067;-84
2021/06/07 04:10:26;;;;;;;31.90;15.40;;;15.10;99.90;;;;;;5081822;28;20040;-84
2021/06/07 04:12:53;;;;;;;32.28;16.02;;;15.10;99.90;;;;;;5102624;28;20067;-84
2021/06/07 04:15:22;;;;;;;33.47;15.68;;;15.10;99.90;;;;;;5101054;28;20028;-85
2021/06/07 04:17:49;;;;;;;33.95;14.85;;;15.10;99.90;;;;;;5085400;28;20420;-81
2021/06/07 04:20:17;;;;;;;32.53;14.98;;;15.10;99.90;;;;;;5100633;28;20103;-85
2021/06/07 04:22:44;;;;;;;29.80;15.38;;;15.20;99.90;;;;;;5102088;28;20376;-83
2021/06/07 04:25:12;;;;;;;31.73;15.43;;;15.10;99.90;;;;;;5092553;28;20025;-82
2021/06/07 04:27:39;;;;;;;29.65;13.93;;;15.10;99.90;;;;;;5065038;28;20027;-81
2021/06/07 04:30:24;;;;;;;31.50;15.38;;;15.20;99.90;;;;;;5097835;28;20388;-83
2021/06/07 04:32:51;;;;;;;32.70;15.82;;;15.20;99.90;;;;;;5088037;28;20059;-84
2021/06/07 04:35:17;;;;;;;29.85;14.82;;;15.20;99.90;;;;;;5088902;28;20426;-84
2021/06/07 04:37:50;;;;;;;35.10;15.82;;;15.10;99.90;;;;;;5088274;28;20035;-81
2021/06/07 04:40:20;;;;;;;31.98;15.10;;;15.10;99.90;;;;;;5097670;28;20081;-82
2021/06/07 04:42:46;;;;;;;28.85;14.20;;;15.10;99.90;;;;;;5086080;28;20024;-83
2021/06/07 04:45:12;;;;;;;29.58;15.18;;;15.10;99.90;;;;;;5084544;28;20512;-82
2021/06/07 04:47:38;;;;;;;28.95;14.55;;;15.10;99.90;;;;;;5102081;28;20084;-83
2021/06/07 04:50:07;;;;;;;34.88;16.30;;;15.10;99.90;;;;;;5097667;28;20048;-82
2021/06/07 04:52:34;;;;;;;32.65;14.60;;;15.20;99.90;;;;;;5098017;28;20034;-84
2021/06/07 04:55:00;;;;;;;34.60;16.17;;;15.20;99.90;;;;;;5080408;28;20036;-84
2021/06/07 04:57:25;;;;;;;32.88;16.13;;;15.30;99.90;;;;;;5090987;28;20024;-84
2021/06/07 04:59:51;;;;;;;29.95;15.10;;;15.30;99.90;;;;;;5084293;28;20039;-83
2021/06/07 05:02:16;;;;;;;28.73;14.45;;;15.30;99.90;;;;;;5090558;28;20032;-82
2021/06/07 05:04:42;;;;;;;29.42;14.98;;;15.30;99.90;;;;;;5098354;28;20111;-82
2021/06/07 05:07:08;;;;;;;32.63;16.20;;;15.30;99.90;;;;;;5062030;28;20033;-81
2021/06/07 05:09:33;;;;;;;32.85;14.98;;;15.20;99.90;;;;;;5086565;28;20081;-81
2021/06/07 05:11:59;;;;;;;26.73;14.00;;;15.30;99.90;;;;;;5093400;28;20028;-83
2021/06/07 05:14:24;;;;;;;28.95;14.20;;;15.30;99.90;;;;;;5076152;28;20032;-83
2021/06/07 05:16:50;;;;;;;27.95;14.57;;;15.30;99.90;;;;;;5083877;28;20020;-83
2021/06/07 05:19:15;;;;;;;33.75;15.07;;;15.30;99.90;;;;;;5094539;28;20020;-82
2021/06/07 05:21:41;;;;;;;29.23;15.07;;;15.40;99.90;;;;;;5094978;28;20383;-83
2021/06/07 05:24:07;;;;;;;30.33;14.75;;;15.30;99.90;;;;;;5079246;28;20020;-83
2021/06/07 05:26:33;;;;;;;30.67;14.55;;;15.30;99.90;;;;;;5075817;28;20570;-83
2021/06/07 05:28:58;;;;;;;31.90;15.05;;;15.40;99.90;;;;;;5094724;28;20106;-83
2021/06/07 05:31:25;;;;;;;27.13;13.48;;;15.40;99.90;;;;;;5093568;28;20081;-83
2021/06/07 05:33:51;;;;;;;27.73;13.25;;;15.30;99.90;;;;;;5095558;28;20067;-82
2021/06/07 05:36:17;;;;;;;28.08;12.75;;;15.40;99.90;;;;;;5095666;28;20024;-83
2021/06/07 05:38:43;;;;;;;26.80;13.57;;;15.40;99.90;;;;;;5096090;28;20050;-84
2021/06/07 05:41:08;;;;;;;30.17;13.23;;;15.40;99.90;;;;;;5074390;28;20210;-84
2021/06/07 05:43:34;;;;;;;24.60;13.57;;;15.40;99.90;;;;;;5095894;28;20051;-84
2021/06/07 05:46:00;;;;;;;29.10;13.23;;;15.40;99.90;;;;;;5096040;28;20024;-85
2021/06/07 05:48:25;;;;;;;27.35;13.30;;;15.40;99.90;;;;;;5091660;28;20106;-84
2021/06/07 05:50:51;;;;;;;24.17;12.45;;;15.30;99.90;;;;;;5074524;28;20032;-83
2021/06/07 05:53:19;;;;;;;27.05;12.48;;;15.30;99.90;;;;;;5086230;28;20345;-83
2021/06/07 05:55:44;;;;;;;25.85;12.98;;;15.40;99.90;;;;;;5089004;28;20028;-84
2021/06/07 05:58:17;;;;;;;26.83;13.70;;;15.40;99.90;;;;;;5095426;28;20136;-84
2021/06/07 06:00:45;;;;;;;26.98;12.75;;;15.40;99.90;;;;;;5095469;28;20024;-84
2021/06/07 06:03:11;;;;;;;26.13;12.75;;;15.50;99.90;;;;;;5073930;28;20113;-84
2021/06/07 06:05:38;;;;;;;29.30;13.20;;;15.40;99.90;;;;;;5075191;28;20453;-83
2021/06/07 06:08:05;;;;;;;28.48;12.80;;;15.40;99.90;;;;;;5064340;28;20136;-84
2021/06/07 06:10:32;;;;;;;25.88;12.32;;;15.50;99.90;;;;;;5093072;28;20036;-84
2021/06/07 06:12:58;;;;;;;25.73;12.57;;;15.50;99.90;;;;;;5094614;28;20038;-84
2021/06/07 06:15:24;;;;;;;26.05;12.15;;;15.40;99.90;;;;;;5085251;28;20050;-85
2021/06/07 06:17:51;;;;;;;27.17;13.45;;;15.40;99.90;;;;;;5095326;28;20738;-84
2021/06/07 06:20:17;;;;;;;23.85;12.25;;;15.40;99.90;;;;;;5073944;28;20025;-84
2021/06/07 06:22:44;;;;;;;27.35;13.00;;;15.40;99.90;;;;;;5056755;28;20025;-84
2021/06/07 06:25:15;;;;;;;25.67;12.90;;;15.50;99.90;;;;;;5060531;28;20052;-84
2021/06/07 06:27:41;;;;;;;25.25;12.98;;;15.50;99.90;;;;;;5077616;28;20040;-84
2021/06/07 06:30:11;;;;;;;22.38;12.23;;;15.50;99.90;;;;;;5077117;28;20051;-84
2021/06/07 06:32:38;;;;;;;24.33;11.95;;;15.50;99.90;;;;;;5076010;28;20503;-84
2021/06/07 06:35:04;;;;;;;23.88;11.90;;;15.50;99.90;;;;;;5093558;28;20030;-84
2021/06/07 06:37:30;;;;;;;23.98;12.50;;;15.60;99.90;;;;;;5075290;28;20488;-84
2021/06/07 06:39:56;;;;;;;21.55;10.90;;;15.60;99.90;;;;;;5092540;28;20091;-84
2021/06/07 06:42:21;;;;;;;23.13;11.05;;;15.60;99.90;;;;;;5072001;28;20044;-83
2021/06/07 06:44:47;;;;;;;24.40;12.32;;;15.70;99.90;;;;;;5075522;28;20028;-83
2021/06/07 06:47:13;;;;;;;23.65;11.75;;;15.60;99.90;;;;;;5095623;28;20028;-83
2021/06/07 06:49:38;;;;;;;21.52;11.95;;;15.60;99.90;;;;;;5094270;28;20024;-82
2021/06/07 06:52:04;;;;;;;22.88;11.23;;;15.60;99.90;;;;;;5074128;28;20024;-82
2021/06/07 06:54:30;;;;;;;25.80;12.35;;;15.60;99.90;;;;;;5075567;28;20024;-82
2021/06/07 06:56:56;;;;;;;23.58;11.38;;;15.60;99.90;;;;;;5071126;28;20047;-82
2021/06/07 06:59:21;;;;;;;23.10;11.50;;;15.60;99.90;;;;;;5068916;28;20523;-81
2021/06/07 07:01:47;;;;;;;24.05;11.02;;;15.60;99.90;;;;;;5085355;28;20051;-81
2021/06/07 07:04:13;;;;;;;23.95;11.95;;;15.60;99.90;;;;;;5083200;28;20036;-81
2021/06/07 07:06:40;;;;;;;21.75;11.07;;;15.70;99.90;;;;;;5105651;28;20146;-82
2021/06/07 07:09:06;;;;;;;24.95;11.07;;;15.70;99.90;;;;;;5075134;28;20594;-82
2021/06/07 07:11:32;;;;;;;19.75;10.80;;;15.70;99.90;;;;;;5074366;28;20119;-81
2021/06/07 07:13:58;;;;;;;22.52;11.30;;;15.80;99.90;;;;;;5075926;28;20044;-82
2021/06/07 07:16:25;;;;;;;20.13;10.93;;;15.70;99.90;;;;;;5072483;28;20036;-82
2021/06/07 07:18:51;;;;;;;22.38;11.25;;;15.80;99.90;;;;;;5076769;28;20042;-81
2021/06/07 07:21:16;;;;;;;21.02;10.57;;;15.80;99.90;;;;;;5084441;28;20043;-81
2021/06/07 07:23:42;;;;;;;17.33;9.45;;;15.70;99.90;;;;;;5067318;28;20431;-81
2021/06/07 07:26:08;;;;;;;17.77;8.80;;;15.80;99.90;;;;;;5073710;28;20040;-82
2021/06/07 07:28:34;;;;;;;16.33;8.30;;;15.70;99.90;;;;;;5074240;28;20036;-82
2021/06/07 07:31:00;;;;;;;19.13;7.38;;;15.70;99.90;;;;;;5089911;28;20187;-82
2021/06/07 07:33:25;;;;;;;13.82;7.47;;;15.80;99.90;;;;;;5073947;28;20033;-82
2021/06/07 07:35:51;;;;;;;18.52;8.93;;;15.80;99.90;;;;;;5083119;28;20062;-81
2021/06/07 07:38:17;;;;;;;12.35;7.38;;;15.80;99.90;;;;;;5055352;28;20025;-81
2021/06/07 07:40:44;;;;;;;11.73;6.40;;;15.80;99.90;;;;;;5050373;28;20456;-83
2021/06/07 07:43:10;;;;;;;13.18;7.00;;;15.90;99.90;;;;;;5077733;28;20031;-83
2021/06/07 07:45:38;;;;;;;12.07;6.35;;;15.90;99.90;;;;;;5102454;28;20164;-83
2021/06/07 07:48:06;;;;;;;11.00;5.65;;;16.00;99.90;;;;;;5081795;28;20031;-83
2021/06/07 07:50:32;;;;;;;10.30;5.72;;;16.00;99.90;;;;;;5081500;28;20040;-83
2021/06/07 07:52:58;;;;;;;11.00;5.90;;;16.00;99.90;;;;;;5064968;28;20043;-82
2021/06/07 07:55:30;;;;;;;10.40;5.47;;;16.00;99.90;;;;;;5072869;28;20031;-82
2021/06/07 07:57:56;;;;;;;11.43;6.40;;;16.00;99.90;;;;;;5087016;28;20046;-82
2021/06/07 08:00:25;;;;;;;12.25;6.38;;;16.10;99.90;;;;;;5070869;28;20027;-83
2021/06/07 08:02:52;;;;;;;12.43;7.25;;;16.00;99.90;;;;;;5074900;28;20037;-83
2021/06/07 08:05:19;;;;;;;11.90;6.13;;;16.10;99.90;;;;;;5079081;28;20021;-82
2021/06/07 08:07:45;;;;;;;12.20;6.38;;;16.10;99.90;;;;;;5085663;28;20036;-80
2021/06/07 08:10:11;;;;;;;13.88;6.70;;;16.10;99.90;;;;;;5074453;28;20059;-82
2021/06/07 08:12:40;;;;;;;13.98;7.05;;;16.20;99.90;;;;;;5109259;28;20036;-82
2021/06/07 08:15:08;;;;;;;11.65;6.45;;;16.20;99.90;;;;;;5090583;28;20089;-81
2021/06/07 08:17:34;;;;;;;13.77;7.28;;;16.20;99.90;;;;;;5095441;28;20027;-82
2021/06/07 08:20:00;;;;;;;14.18;7.47;;;16.20;99.90;;;;;;5113320;28;20455;-82
2021/06/07 08:22:25;;;;;;;16.52;7.95;;;16.20;99.90;;;;;;5105425;28;20024;-82
2021/06/07 08:24:51;;;;;;;15.98;7.80;;;16.20;99.90;;;;;;5088963;28;20043;-83
2021/06/07 08:27:17;;;;;;;15.02;8.35;;;16.30;99.90;;;;;;5107626;28;20506;-83
2021/06/07 08:29:43;;;;;;;13.32;7.57;;;16.30;99.90;;;;;;5113392;28;20027;-83
2021/06/07 08:32:09;;;;;;;11.93;7.70;;;16.30;99.90;;;;;;5094593;28;20439;-82
2021/06/07 08:34:35;;;;;;;12.60;7.20;;;16.30;99.90;;;;;;5094334;28;20135;-85
2021/06/07 08:37:02;;;;;;;13.15;7.05;;;16.30;99.90;;;;;;5093583;28;20055;-84
2021/06/07 08:39:28;;;;;;;13.27;7.05;;;16.40;99.90;;;;;;5091668;28;20016;-83
2021/06/07 08:41:54;;;;;;;13.15;6.93;;;16.50;99.90;;;;;;5073071;28;20039;-83
2021/06/07 08:44:19;;;;;;;10.93;6.03;;;16.50;99.90;;;;;;5054496;28;20029;-82
2021/06/07 08:46:45;;;;;;;10.77;6.15;;;16.60;99.90;;;;;;5076701;28;20048;-84
2021/06/07 08:49:12;;;;;;;11.23;6.38;;;16.70;99.90;;;;;;5077780;28;20095;-82
2021/06/07 08:51:37;;;;;;;11.45;6.40;;;16.70;99.90;;;;;;5079056;28;20036;-82
2021/06/07 08:54:03;;;;;;;11.73;6.35;;;16.90;99.90;;;;;;5095768;28;20047;-84
2021/06/07 08:56:29;;;;;;;11.00;6.07;;;16.80;99.90;;;;;;5097957;28;20028;-83
2021/06/07 08:58:54;;;;;;;10.43;6.45;;;16.80;99.90;;;;;;5094362;28;20123;-83
2021/06/07 09:01:20;;;;;;;11.98;6.53;;;16.90;99.90;;;;;;5084859;28;20028;-84
2021/06/07 09:03:46;;;;;;;12.80;6.75;;;16.90;99.90;;;;;;5103365;28;20020;-85
2021/06/07 09:06:13;;;;;;;13.93;6.63;;;17.00;99.90;;;;;;5087496;28;20024;-84
2021/06/07 09:08:40;;;;;;;11.57;6.07;;;17.00;99.90;;;;;;5105605;28;20040;-83
2021/06/07 09:11:15;;;;;;;11.80;6.55;;;17.00;99.90;;;;;;5087957;28;20099;-85
2021/06/07 09:13:41;;;;;;;12.90;6.85;;;17.10;99.90;;;;;;5107390;28;20037;-83
2021/06/07 09:16:09;;;;;;;13.18;7.65;;;17.10;99.90;;;;;;5109253;28;20032;-84
2021/06/07 09:18:44;;;;;;;13.77;7.32;;;17.10;99.90;;;;;;5084537;28;20024;-83
2021/06/07 09:21:19;;;;;;;14.18;7.60;;;17.20;99.90;;;;;;5109787;28;20294;-82
2021/06/07 09:23:52;;;;;;;12.73;7.47;;;17.20;99.90;;;;;;5091637;28;20560;-82
2021/06/07 09:26:38;;;;;;;14.25;8.20;;;17.30;99.90;;;;;;5104967;28;20091;-83
2021/06/07 09:29:24;;;;;;;16.70;8.23;;;17.30;99.90;;;;;;5099439;28;20171;-84
2021/06/07 09:31:54;;;;;;;14.38;8.15;;;17.30;99.90;;;;;;5092775;28;20039;-83
2021/06/07 09:34:35;;;;;;;14.52;8.52;;;17.40;99.90;;;;;;5090076;28;20020;-83
2021/06/07 09:37:12;;;;;;;15.45;9.30;;;17.30;99.90;;;;;;5103458;28;20048;-82
2021/06/07 09:39:39;;;;;;;15.52;8.63;;;17.20;99.90;;;;;;5087197;28;20024;-84
2021/06/07 09:42:12;;;;;;;18.80;9.85;;;17.30;99.90;;;;;;5105678;28;20020;-83
2021/06/07 09:44:41;;;;;;;15.68;8.80;;;17.20;99.90;;;;;;5087457;28;20050;-82
2021/06/07 09:47:15;;;;;;;15.43;8.77;;;17.20;99.90;;;;;;5106365;28;20239;-80
2021/06/07 09:49:43;;;;;;;17.60;9.38;;;17.40;99.90;;;;;;5098329;28;20506;-82
2021/06/07 09:52:12;;;;;;;17.17;9.75;;;17.30;99.90;;;;;;5094858;28;20035;-83
2021/06/07 09:54:38;;;;;;;16.50;9.75;;;17.40;99.90;;;;;;5095924;28;20024;-81
2021/06/07 09:57:04;;;;;;;16.70;9.25;;;17.30;99.90;;;;;;5092679;28;20505;-82
2021/06/07 09:59:36;;;;;;;16.80;9.68;;;17.30;99.90;;;;;;5095110;28;20031;-82
2021/06/07 10:02:14;;;;;;;17.13;9.65;;;17.40;99.90;;;;;;5075951;28;20024;-81
2021/06/07 10:04:51;;;;;;;15.60;9.27;;;17.30;99.90;;;;;;5062647;28;20082;-82
2021/06/07 10:07:19;;;;;;;15.10;9.05;;;17.30;99.90;;;;;;5081918;28;20483;-82
2021/06/07 10:10:13;;;;;;;17.95;10.27;;;17.20;99.90;;;;;;5086876;28;20107;-80
2021/06/07 10:12:43;;;;;;;16.85;10.05;;;17.20;99.90;;;;;;5074536;28;20020;-81
2021/06/07 10:15:14;;;;;;;19.08;10.07;;;17.10;99.90;;;;;;5059169;28;20087;-81
2021/06/07 10:17:48;;;;;;;17.25;9.68;;;17.20;99.90;;;;;;5079207;28;20051;-82
2021/06/07 10:22:43;;;;;;;16.70;9.55;;;17.30;99.90;;;;;;5096082;28;20084;-82
2021/06/07 10:25:10;;;;;;;17.42;10.52;;;17.40;99.90;;;;;;5093249;28;20128;-82
2021/06/07 10:27:36;;;;;;;17.80;10.32;;;17.50;99.90;;;;;;5095658;28;20027;-81
2021/06/07 10:30:12;;;;;;;16.88;9.13;;;17.50;99.90;;;;;;5098221;28;20029;-82
2021/06/07 10:32:38;;;;;;;17.77;9.63;;;17.60;99.90;;;;;;5074799;28;20561;-82
2021/06/07 10:35:06;;;;;;;17.77;10.60;;;17.60;99.90;;;;;;5086820;28;20111;-81
2021/06/07 10:37:32;;;;;;;16.83;9.88;;;17.60;99.90;;;;;;5076870;28;20157;-82
2021/06/07 10:40:19;;;;;;;19.85;10.68;;;17.60;99.90;;;;;;5076087;28;20020;-82
2021/06/07 10:42:56;;;;;;;17.48;10.48;;;17.60;99.90;;;;;;5090728;28;20020;-81
2021/06/07 10:45:26;;;;;;;17.75;10.40;;;17.50;99.90;;;;;;5080914;28;20083;-83
2021/06/07 10:47:53;;;;;;;17.08;10.82;;;17.50;99.90;;;;;;5097239;28;20035;-83
2021/06/07 10:50:27;;;;;;;17.45;10.35;;;17.50;99.90;;;;;;5086875;28;20023;-81
2021/06/07 10:53:01;;;;;;;18.25;10.45;;;17.50;99.90;;;;;;5094421;28;20020;-83
2021/06/07 10:55:34;;;;;;;17.30;10.23;;;17.50;99.90;;;;;;5100572;28;20024;-83
2021/06/07 10:58:04;;;;;;;17.85;10.05;;;17.50;99.90;;;;;;5097151;28;20043;-83
2021/06/07 11:00:48;;;;;;;16.00;10.27;;;17.50;99.90;;;;;;5096531;28;20016;-82
2021/06/07 11:03:32;;;;;;;18.90;10.35;;;17.50;99.90;;;;;;5089872;28;20110;-82
2021/06/07 11:06:00;;;;;;;22.55;11.68;;;17.60;99.90;;;;;;5077094;28;20024;-83
2021/06/07 11:08:30;;;;;;;19.13;11.45;;;17.70;99.90;;;;;;5084281;28;20092;-83
2021/06/07 11:11:02;;;;;;;22.00;11.07;;;17.70;99.90;;;;;;5092932;28;20024;-82
2021/06/07 11:13:53;;;;;;;20.10;12.00;;;17.70;99.90;;;;;;5093047;28;20034;-82
2021/06/07 11:16:31;;;;;;;17.10;10.02;;;17.70;99.90;;;;;;5079420;28;20054;-82
2021/06/07 11:18:57;;;;;;;17.95;10.40;;;17.70;99.90;;;;;;5078975;28;20020;-79
2021/06/07 11:21:29;;;;;;;17.67;9.73;;;17.70;99.90;;;;;;5080189;28;20673;-83
2021/06/07 11:23:55;;;;;;;15.13;9.68;;;17.70;99.90;;;;;;5094331;28;20039;-83
2021/06/07 11:26:47;;;;;;;16.88;10.68;;;17.70;99.90;;;;;;5077572;28;20020;-82
2021/06/07 11:29:13;;;;;;;16.40;10.93;;;17.80;99.90;;;;;;5089017;28;20035;-82
2021/06/07 11:31:41;;;;;;;16.55;10.00;;;17.70;99.90;;;;;;5092642;28;20081;-81
2021/06/07 11:34:10;;;;;;;15.88;10.20;;;17.70;99.90;;;;;;5077710;28;20043;-82
2021/06/07 11:37:00;;;;;;;16.58;10.15;;;17.80;99.90;;;;;;5073844;28;20817;-83
2021/06/07 11:39:29;;;;;;;17.23;10.23;;;17.80;99.90;;;;;;5074711;28;20044;-82
2021/06/07 11:42:04;;;;;;;16.23;9.70;;;17.90;99.90;;;;;;5076395;28;20111;-82
2021/06/07 11:44:52;;;;;;;18.05;10.40;;;17.90;99.90;;;;;;5090459;28;20032;-82
2021/06/07 11:47:49;;;;;;;16.85;10.02;;;17.90;99.90;;;;;;5090946;28;20046;-82
2021/06/07 11:50:19;;;;;;;15.18;8.85;;;18.00;99.90;;;;;;5070112;28;20039;-82
2021/06/07 11:52:51;;;;;;;16.80;10.37;;;18.00;99.90;;;;;;5071839;28;20032;-79
2021/06/07 11:55:32;;;;;;;14.40;9.50;;;17.90;99.90;;;;;;5079216;28;20051;-79
2021/06/07 11:58:23;;;;;;;16.80;9.93;;;17.90;99.90;;;;;;5086139;28;20071;-79
2021/06/07 12:01:03;;;;;;;15.80;10.15;;;18.00;99.90;;;;;;5091222;28;20028;-79
2021/06/07 12:03:30;;;;;;;18.27;10.70;;;18.10;99.90;;;;;;5090656;28;20015;-80
2021/06/07 12:05:57;;;;;;;18.75;10.70;;;18.10;99.90;;;;;;5075827;28;20074;-80
2021/06/07 12:08:26;;;;;;;16.65;10.25;;;18.10;99.90;;;;;;5071596;28;20102;-79
2021/06/07 12:10:55;;;;;;;16.52;10.07;;;18.10;99.90;;;;;;5090869;28;20047;-79
2021/06/07 12:13:28;;;;;;;19.10;11.40;;;18.20;99.90;;;;;;5090357;28;20122;-79
2021/06/07 12:16:17;;;;;;;18.05;11.32;;;18.30;99.90;;;;;;5090513;28;20024;-79
2021/06/07 12:18:45;;;;;;;16.95;10.55;;;18.20;99.90;;;;;;5075336;28;20020;-80
2021/06/07 12:21:10;;;;;;;17.50;10.45;;;18.30;99.90;;;;;;5094349;28;20020;-78
2021/06/07 12:23:42;;;;;;;16.83;10.63;;;18.40;99.90;;;;;;5095556;28;20024;-80
2021/06/07 12:29:38;;;;;;;15.50;10.10;;;18.40;99.90;;;;;;5090600;28;20059;-80
2021/06/07 12:32:21;;;;;;;15.05;10.30;;;18.40;99.90;;;;;;5092699;28;20028;-79
2021/06/07 12:35:11;;;;;;;14.60;10.20;;;18.40;99.90;;;;;;5094821;28;20027;-81
2021/06/07 12:38:03;;;;;;;16.63;10.15;;;18.40;99.90;;;;;;5064816;28;20043;-82
2021/06/07 12:40:46;;;;;;;16.83;10.48;;;18.30;99.90;;;;;;5078610;28;20396;-82
2021/06/07 12:43:18;;;;;;;17.60;10.27;;;18.30;99.90;;;;;;5086265;28;20032;-79